Zambezi Star — 2CKK9 — position and weather

sailwx.info

Track history (hours):
 
Tides and Currents Weather Stations Pressure Air Temp Water Temp Dewpoint Dewpoint Depression Visibility Wind Speed Wind Dir Waves Ship Positions

Zambezi Star

Last reported at 2017-Nov-06 02:30 UTC. Time now 2017-Dec-11 02:14 UTC.
Position N 37°39' E 025°45'.
Warning: this ship's position is 34 days out of date.

Length 184 m; draft 11.5 m.

Type: Ship. MMSI: 235073548.

Date/timePositionNaut miles runAvg speedWind from/ knotsBaromVisibWave heightAir tempDewpointWater temp
2017-Nov-06 02:30N 37°39' E 025°45'611.2
2017-Nov-06 02:00N 37°44' E 025°43'611.5
2017-Nov-06 01:30N 37°50' E 025°41'239 7.5
2017-Nov-04 17:39N 40°57' E 028°53'2 5.3
2017-Nov-04 17:17N 40°57' E 028°55'310.0
2017-Nov-04 16:59N 40°59' E 028°59'328 8.8
2017-Nov-03 03:41N 46°18' E 030°43'1 8.1
2017-Nov-03 03:31N 46°19' E 030°42'  
2017-Oct-31 03:57N 46°19' E 030°40'5 4.1
2017-Oct-31 02:50N 46°15' E 030°43'0 0.0
2017-Oct-29 17:58N 46°15' E 030°43'0 0.0
2017-Oct-28 04:57N 46°15' E 030°43'0 0.0
2017-Oct-28 03:49N 46°15' E 030°43'0 0.0
2017-Oct-28 03:30N 46°15' E 030°43'0 0.0
2017-Oct-28 02:59N 46°15' E 030°43'0 0.0
2017-Oct-27 20:36N 46°15' E 030°43'0 0.0
2017-Oct-27 20:30N 46°15' E 030°43'0 0.0
2017-Oct-27 19:38N 46°15' E 030°43'0 0.0
2017-Oct-27 19:00N 46°15' E 030°43'0 0.0
2017-Oct-27 16:59N 46°15' E 030°43'0 0.0
2017-Oct-27 16:30N 46°15' E 030°43'0 0.0
2017-Oct-27 15:59N 46°15' E 030°43'0 0.0
2017-Oct-27 14:43N 46°15' E 030°43'0 0.0
2017-Oct-27 13:59N 46°15' E 030°43'0 0.0
2017-Oct-27 13:30N 46°15' E 030°43'0 0.0
2017-Oct-27 12:59N 46°15' E 030°43'0 0.0
2017-Oct-27 10:59N 46°15' E 030°43'0 0.0
2017-Oct-27 09:56N 46°15' E 030°43'0 0.0
2017-Oct-27 07:59N 46°15' E 030°43'0 0.1
2017-Oct-27 06:37N 46°15' E 030°43'0 0.0
2017-Oct-27 05:49N 46°15' E 030°43'0 0.0
2017-Oct-27 04:59N 46°15' E 030°43'0 0.0
2017-Oct-27 04:30N 46°15' E 030°43'0 0.0
2017-Oct-27 03:59N 46°15' E 030°43'0 0.0
2017-Oct-27 03:30N 46°15' E 030°43'0 0.0
2017-Oct-27 02:59N 46°15' E 030°43'0 0.1
2017-Oct-27 02:31N 46°15' E 030°43'  
Track history (hours):
 
Tides and Currents Weather Stations Pressure Air Temp Water Temp Dewpoint Dewpoint Depression Visibility Wind Speed Wind Dir Waves Ship Positions

Zambezi Star

Last reported at 2017-Nov-06 02:30 UTC. Time now 2017-Dec-11 02:14 UTC.
Position N 37°39' E 025°45'.
Warning: this ship's position is 34 days out of date.

Length 184 m; draft 11.5 m.

Type: Ship. MMSI: 235073548.

Date/timePositionNaut miles runAvg speedWind from/ knotsBaromVisibWave heightAir tempDewpointWater temp
2017-Nov-06 02:30N 37°39' E 025°45'611.2
2017-Nov-06 02:00N 37°44' E 025°43'611.5
2017-Nov-06 01:30N 37°50' E 025°41'239 7.5
2017-Nov-04 17:39N 40°57' E 028°53'2 5.3
2017-Nov-04 17:17N 40°57' E 028°55'310.0
2017-Nov-04 16:59N 40°59' E 028°59'328 8.8
2017-Nov-03 03:41N 46°18' E 030°43'1 8.1
2017-Nov-03 03:31N 46°19' E 030°42'  
2017-Oct-31 03:57N 46°19' E 030°40'5 4.1
2017-Oct-31 02:50N 46°15' E 030°43'0 0.0
2017-Oct-29 17:58N 46°15' E 030°43'0 0.0
2017-Oct-28 04:57N 46°15' E 030°43'0 0.0
2017-Oct-28 03:49N 46°15' E 030°43'0 0.0
2017-Oct-28 03:30N 46°15' E 030°43'0 0.0
2017-Oct-28 02:59N 46°15' E 030°43'0 0.0
2017-Oct-27 20:36N 46°15' E 030°43'0 0.0
2017-Oct-27 20:30N 46°15' E 030°43'0 0.0
2017-Oct-27 19:38N 46°15' E 030°43'0 0.0
2017-Oct-27 19:00N 46°15' E 030°43'0 0.0
2017-Oct-27 16:59N 46°15' E 030°43'0 0.0
2017-Oct-27 16:30N 46°15' E 030°43'0 0.0
2017-Oct-27 15:59N 46°15' E 030°43'0 0.0
2017-Oct-27 14:43N 46°15' E 030°43'0 0.0
2017-Oct-27 13:59N 46°15' E 030°43'0 0.0
2017-Oct-27 13:30N 46°15' E 030°43'0 0.0
2017-Oct-27 12:59N 46°15' E 030°43'0 0.0
2017-Oct-27 10:59N 46°15' E 030°43'0 0.0
2017-Oct-27 09:56N 46°15' E 030°43'0 0.0
2017-Oct-27 07:59N 46°15' E 030°43'0 0.1
2017-Oct-27 06:37N 46°15' E 030°43'0 0.0
2017-Oct-27 05:49N 46°15' E 030°43'0 0.0
2017-Oct-27 04:59N 46°15' E 030°43'0 0.0
2017-Oct-27 04:30N 46°15' E 030°43'0 0.0
2017-Oct-27 03:59N 46°15' E 030°43'0 0.0
2017-Oct-27 03:30N 46°15' E 030°43'0 0.0
2017-Oct-27 02:59N 46°15' E 030°43'0 0.1
2017-Oct-27 02:31N 46°15' E 030°43'  

Dump ship's entire track history